Obelix — 7JAX — position and weather

sailwx.info

Track history (hours):
 
Tides and Currents Weather Stations Pressure Air Temp Water Temp Dewpoint Dewpoint Depression Visibility Wind Speed Wind Dir Waves Ship Positions

Obelix

Last reported at 2016-Sep-26 02:31 UTC. Time now 2016-Sep-26 05:23 UTC.
Position N 35°30' E 140°02'.

Length 74 m; draft 4.1 m.

Type: Tanker. MMSI: 432528000.

Date/timePositionNaut miles runAvg speedWind from/ knotsBaromVisibWave heightAir tempDewpointWater temp
2016-Sep-26 02:31N 35°30' E 140°02'0 0.0
2016-Sep-26 01:28N 35°30' E 140°02'0 0.0
2016-Sep-26 00:31N 35°30' E 140°02'5 1.7
2016-Sep-25 21:31N 35°29' E 139°56'0 0.0
2016-Sep-25 17:25N 35°29' E 139°56'0 0.0
2016-Sep-25 16:31N 35°29' E 139°56'0 0.0
2016-Sep-25 15:31N 35°29' E 139°56'0 0.0
2016-Sep-25 14:31N 35°29' E 139°56'0 0.0
2016-Sep-25 12:28N 35°29' E 139°56'0 0.0
2016-Sep-25 11:22N 35°29' E 139°56'0 0.0
2016-Sep-25 10:31N 35°29' E 139°56'0 0.0
2016-Sep-25 09:31N 35°29' E 139°56'0 0.0
2016-Sep-25 07:28N 35°29' E 139°56'0 0.0
2016-Sep-25 04:31N 35°29' E 139°56'25 6.3
2016-Sep-25 00:34N 35°06' E 139°45'6411.6
2016-Sep-24 19:04N 34°33' E 138°38'  
2016-Sep-21 08:25N 35°07' E 139°42'24 8.4
2016-Sep-21 05:33N 35°29' E 139°55'0 0.0
2016-Sep-21 03:33N 35°29' E 139°55'0 0.0
2016-Sep-21 02:33N 35°29' E 139°55'0 0.0
2016-Sep-20 17:32N 35°29' E 139°55'0 0.0
2016-Sep-20 14:32N 35°29' E 139°55'0 0.0
2016-Sep-20 13:33N 35°29' E 139°55'0 0.0
2016-Sep-20 10:33N 35°29' E 139°55'0 0.0
2016-Sep-20 08:33N 35°29' E 139°55'0 0.0
2016-Sep-20 07:33N 35°29' E 139°55'0 0.0
2016-Sep-20 06:33N 35°29' E 139°55'0 0.0
2016-Sep-20 02:27N 35°29' E 139°55'0 0.0
2016-Sep-19 23:33N 35°29' E 139°55'0 0.0
2016-Sep-19 19:33N 35°29' E 139°55'0 0.0
2016-Sep-19 18:33N 35°29' E 139°55'0 0.0
2016-Sep-19 16:30N 35°29' E 139°55'0 0.0
2016-Sep-19 14:33N 35°29' E 139°55'0 0.0
2016-Sep-19 13:30N 35°29' E 139°55'0 0.0
2016-Sep-19 12:33N 35°29' E 139°55'0 0.0
2016-Sep-19 11:33N 35°29' E 139°55'0 0.2
2016-Sep-19 09:33N 35°29' E 139°54'3 1.7
2016-Sep-19 07:33N 35°30' E 139°50'5 4.5
2016-Sep-19 06:33N 35°31' E 139°56'5 1.7
2016-Sep-19 03:32N 35°30' E 140°02'0 0.0
2016-Sep-19 02:26N 35°30' E 140°02'0 0.0
2016-Sep-19 00:26N 35°30' E 140°02'5 1.1
2016-Sep-18 19:33N 35°29' E 139°56'0 0.0
2016-Sep-18 15:33N 35°29' E 139°56'0 0.0
2016-Sep-18 14:34N 35°29' E 139°56'258 9.8
2016-Sep-17 12:20N 34°03' E 134°60'1910.7
2016-Sep-17 10:33N 34°22' E 134°60'1110.7
2016-Sep-17 09:33N 34°33' E 135°02'8 7.6
2016-Sep-17 08:33N 34°37' E 134°54'  
Track history (hours):
 
Tides and Currents Weather Stations Pressure Air Temp Water Temp Dewpoint Dewpoint Depression Visibility Wind Speed Wind Dir Waves Ship Positions

Obelix

Last reported at 2016-Sep-26 02:31 UTC. Time now 2016-Sep-26 05:23 UTC.
Position N 35°30' E 140°02'.

Length 74 m; draft 4.1 m.

Type: Tanker. MMSI: 432528000.

Date/timePositionNaut miles runAvg speedWind from/ knotsBaromVisibWave heightAir tempDewpointWater temp
2016-Sep-26 02:31N 35°30' E 140°02'0 0.0
2016-Sep-26 01:28N 35°30' E 140°02'0 0.0
2016-Sep-26 00:31N 35°30' E 140°02'5 1.7
2016-Sep-25 21:31N 35°29' E 139°56'0 0.0
2016-Sep-25 17:25N 35°29' E 139°56'0 0.0
2016-Sep-25 16:31N 35°29' E 139°56'0 0.0
2016-Sep-25 15:31N 35°29' E 139°56'0 0.0
2016-Sep-25 14:31N 35°29' E 139°56'0 0.0
2016-Sep-25 12:28N 35°29' E 139°56'0 0.0
2016-Sep-25 11:22N 35°29' E 139°56'0 0.0
2016-Sep-25 10:31N 35°29' E 139°56'0 0.0
2016-Sep-25 09:31N 35°29' E 139°56'0 0.0
2016-Sep-25 07:28N 35°29' E 139°56'0 0.0
2016-Sep-25 04:31N 35°29' E 139°56'25 6.3
2016-Sep-25 00:34N 35°06' E 139°45'6411.6
2016-Sep-24 19:04N 34°33' E 138°38'  
2016-Sep-21 08:25N 35°07' E 139°42'24 8.4
2016-Sep-21 05:33N 35°29' E 139°55'0 0.0
2016-Sep-21 03:33N 35°29' E 139°55'0 0.0
2016-Sep-21 02:33N 35°29' E 139°55'0 0.0
2016-Sep-20 17:32N 35°29' E 139°55'0 0.0
2016-Sep-20 14:32N 35°29' E 139°55'0 0.0
2016-Sep-20 13:33N 35°29' E 139°55'0 0.0
2016-Sep-20 10:33N 35°29' E 139°55'0 0.0
2016-Sep-20 08:33N 35°29' E 139°55'0 0.0
2016-Sep-20 07:33N 35°29' E 139°55'0 0.0
2016-Sep-20 06:33N 35°29' E 139°55'0 0.0
2016-Sep-20 02:27N 35°29' E 139°55'0 0.0
2016-Sep-19 23:33N 35°29' E 139°55'0 0.0
2016-Sep-19 19:33N 35°29' E 139°55'0 0.0
2016-Sep-19 18:33N 35°29' E 139°55'0 0.0
2016-Sep-19 16:30N 35°29' E 139°55'0 0.0
2016-Sep-19 14:33N 35°29' E 139°55'0 0.0
2016-Sep-19 13:30N 35°29' E 139°55'0 0.0
2016-Sep-19 12:33N 35°29' E 139°55'0 0.0
2016-Sep-19 11:33N 35°29' E 139°55'0 0.2
2016-Sep-19 09:33N 35°29' E 139°54'3 1.7
2016-Sep-19 07:33N 35°30' E 139°50'5 4.5
2016-Sep-19 06:33N 35°31' E 139°56'5 1.7
2016-Sep-19 03:32N 35°30' E 140°02'0 0.0
2016-Sep-19 02:26N 35°30' E 140°02'0 0.0
2016-Sep-19 00:26N 35°30' E 140°02'5 1.1
2016-Sep-18 19:33N 35°29' E 139°56'0 0.0
2016-Sep-18 15:33N 35°29' E 139°56'0 0.0
2016-Sep-18 14:34N 35°29' E 139°56'258 9.8
2016-Sep-17 12:20N 34°03' E 134°60'1910.7
2016-Sep-17 10:33N 34°22' E 134°60'1110.7
2016-Sep-17 09:33N 34°33' E 135°02'8 7.6
2016-Sep-17 08:33N 34°37' E 134°54'  

Dump ship's entire track history